sensor_id;sensor_type;location;lat;lon;timestamp;pressure;altitude;pressure_sealevel;temperature;humidity
13124;BME280;6627;50.920;12.050;2022-10-22T00:00:20;98590.84;;;18.86;73.65
13124;BME280;6627;50.920;12.050;2022-10-22T00:02:48;98593.88;;;18.65;74.93
13124;BME280;6627;50.920;12.050;2022-10-22T00:05:16;98564.13;;;18.16;74.97
13124;BME280;6627;50.920;12.050;2022-10-22T00:07:44;98600.06;;;19.16;73.68
13124;BME280;6627;50.920;12.050;2022-10-22T00:10:13;98568.28;;;18.61;73.54
13124;BME280;6627;50.920;12.050;2022-10-22T00:12:44;98592.03;;;18.69;74.05
13124;BME280;6627;50.920;12.050;2022-10-22T00:15:12;98600.72;;;18.90;73.37
13124;BME280;6627;50.920;12.050;2022-10-22T00:17:39;98598.16;;;18.31;74.88
13124;BME280;6627;50.920;12.050;2022-10-22T00:20:08;98645.06;;;18.93;75.62
13124;BME280;6627;50.920;12.050;2022-10-22T00:22:36;98649.00;;;19.30;74.02
13124;BME280;6627;50.920;12.050;2022-10-22T00:25:04;98636.53;;;18.98;74.39
13124;BME280;6627;50.920;12.050;2022-10-22T00:27:33;98614.00;;;18.37;75.92
13124;BME280;6627;50.920;12.050;2022-10-22T00:30:01;98624.97;;;18.88;75.01
13124;BME280;6627;50.920;12.050;2022-10-22T00:32:29;98633.53;;;19.61;72.69
13124;BME280;6627;50.920;12.050;2022-10-22T00:34:56;98658.34;;;20.07;70.57
13124;BME280;6627;50.920;12.050;2022-10-22T00:37:24;98608.88;;;19.06;72.02
13124;BME280;6627;50.920;12.050;2022-10-22T00:39:52;98614.41;;;19.26;71.83
13124;BME280;6627;50.920;12.050;2022-10-22T00:42:22;98642.06;;;19.36;71.85
13124;BME280;6627;50.920;12.050;2022-10-22T00:45:16;98690.25;;;20.34;70.22
13124;BME280;6627;50.920;12.050;2022-10-22T00:47:50;98616.16;;;18.99;70.76
13124;BME280;6627;50.920;12.050;2022-10-22T00:50:22;98647.03;;;18.76;74.18
13124;BME280;6627;50.920;12.050;2022-10-22T00:52:51;98651.59;;;19.04;72.94
13124;BME280;6627;50.920;12.050;2022-10-22T00:55:20;98658.41;;;18.94;73.92
13124;BME280;6627;50.920;12.050;2022-10-22T00:57:48;98633.69;;;18.75;74.71
13124;BME280;6627;50.920;12.050;2022-10-22T01:00:18;98619.91;;;18.55;75.05
13124;BME280;6627;50.920;12.050;2022-10-22T01:02:46;98612.47;;;18.56;75.45
13124;BME280;6627;50.920;12.050;2022-10-22T01:05:16;98625.22;;;19.19;73.47
13124;BME280;6627;50.920;12.050;2022-10-22T01:07:47;98635.72;;;19.32;73.04
13124;BME280;6627;50.920;12.050;2022-10-22T01:10:36;98648.72;;;19.55;72.79
13124;BME280;6627;50.920;12.050;2022-10-22T01:13:17;98640.81;;;19.34;71.93
13124;BME280;6627;50.920;12.050;2022-10-22T01:15:58;98610.25;;;18.77;72.94
13124;BME280;6627;50.920;12.050;2022-10-22T01:18:34;98622.41;;;18.96;73.31
13124;BME280;6627;50.920;12.050;2022-10-22T01:21:18;98642.69;;;19.30;72.06
13124;BME280;6627;50.920;12.050;2022-10-22T01:27:02;98618.19;;;18.82;72.34
13124;BME280;6627;50.920;12.050;2022-10-22T01:29:39;98624.28;;;19.11;71.30
13124;BME280;6627;50.920;12.050;2022-10-22T01:32:13;98629.78;;;19.30;70.73
13124;BME280;6627;50.920;12.050;2022-10-22T01:34:45;98640.03;;;19.53;70.21
13124;BME280;6627;50.920;12.050;2022-10-22T01:37:15;98657.72;;;19.94;70.03
13124;BME280;6627;50.920;12.050;2022-10-22T01:39:45;98619.03;;;19.22;70.70
13124;BME280;6627;50.920;12.050;2022-10-22T01:42:14;98597.59;;;18.41;73.07
13124;BME280;6627;50.920;12.050;2022-10-22T01:44:44;98632.34;;;18.84;73.79
13124;BME280;6627;50.920;12.050;2022-10-22T01:47:19;98612.97;;;18.61;75.03
13124;BME280;6627;50.920;12.050;2022-10-22T01:50:20;98603.88;;;18.41;75.20
13124;BME280;6627;50.920;12.050;2022-10-22T01:53:02;98600.94;;;19.21;72.10
13124;BME280;6627;50.920;12.050;2022-10-22T01:55:39;98621.72;;;18.67;74.80
13124;BME280;6627;50.920;12.050;2022-10-22T01:58:17;98612.19;;;18.61;76.08
13124;BME280;6627;50.920;12.050;2022-10-22T02:00:54;98608.84;;;18.52;76.82
13124;BME280;6627;50.920;12.050;2022-10-22T02:03:25;98599.69;;;18.79;75.95
13124;BME280;6627;50.920;12.050;2022-10-22T02:05:58;98626.31;;;19.33;74.54
13124;BME280;6627;50.920;12.050;2022-10-22T02:08:31;98613.03;;;19.35;73.70
13124;BME280;6627;50.920;12.050;2022-10-22T02:11:00;98594.22;;;19.18;73.68
13124;BME280;6627;50.920;12.050;2022-10-22T02:13:35;98593.66;;;19.09;73.97
13124;BME280;6627;50.920;12.050;2022-10-22T02:16:07;98593.06;;;19.00;73.71
13124;BME280;6627;50.920;12.050;2022-10-22T02:18:39;98611.56;;;19.03;74.39
13124;BME280;6627;50.920;12.050;2022-10-22T02:21:09;98621.06;;;19.86;72.02
13124;BME280;6627;50.920;12.050;2022-10-22T02:23:38;98573.22;;;19.26;71.38
13124;BME280;6627;50.920;12.050;2022-10-22T02:26:10;98607.56;;;19.58;71.88
13124;BME280;6627;50.920;12.050;2022-10-22T02:28:46;98551.91;;;19.00;71.56
13124;BME280;6627;50.920;12.050;2022-10-22T02:31:22;98588.16;;;19.09;72.80
13124;BME280;6627;50.920;12.050;2022-10-22T02:33:53;98605.19;;;19.37;72.72
13124;BME280;6627;50.920;12.050;2022-10-22T02:36:23;98600.72;;;19.49;72.20
13124;BME280;6627;50.920;12.050;2022-10-22T02:38:52;98612.41;;;19.65;71.45
13124;BME280;6627;50.920;12.050;2022-10-22T02:41:20;98611.31;;;19.70;71.72
13124;BME280;6627;50.920;12.050;2022-10-22T02:43:50;98557.38;;;19.19;70.53
13124;BME280;6627;50.920;12.050;2022-10-22T02:46:22;98591.53;;;19.60;70.41
13124;BME280;6627;50.920;12.050;2022-10-22T02:48:50;98599.19;;;19.51;70.50
13124;BME280;6627;50.920;12.050;2022-10-22T02:51:17;98584.97;;;18.87;71.94
13124;BME280;6627;50.920;12.050;2022-10-22T02:53:46;98582.59;;;19.05;72.95
13124;BME280;6627;50.920;12.050;2022-10-22T02:56:14;98616.03;;;19.69;71.33
13124;BME280;6627;50.920;12.050;2022-10-22T02:58:42;98618.78;;;19.50;71.67
13124;BME280;6627;50.920;12.050;2022-10-22T03:01:10;98599.41;;;19.42;70.45
13124;BME280;6627;50.920;12.050;2022-10-22T03:03:39;98633.53;;;19.41;71.89
13124;BME280;6627;50.920;12.050;2022-10-22T03:06:07;98611.16;;;18.85;72.08
13124;BME280;6627;50.920;12.050;2022-10-22T03:08:35;98644.97;;;19.63;71.44
13124;BME280;6627;50.920;12.050;2022-10-22T03:11:03;98647.41;;;19.68;71.04
13124;BME280;6627;50.920;12.050;2022-10-22T03:13:31;98650.72;;;19.97;69.86
13124;BME280;6627;50.920;12.050;2022-10-22T03:15:59;98652.75;;;19.80;69.45
13124;BME280;6627;50.920;12.050;2022-10-22T03:18:27;98651.09;;;19.56;70.57
13124;BME280;6627;50.920;12.050;2022-10-22T03:21:05;98651.97;;;19.80;70.02
13124;BME280;6627;50.920;12.050;2022-10-22T03:23:35;98661.09;;;20.07;69.20
13124;BME280;6627;50.920;12.050;2022-10-22T03:26:04;98648.69;;;19.74;70.02
13124;BME280;6627;50.920;12.050;2022-10-22T03:28:34;98657.69;;;19.71;70.39
13124;BME280;6627;50.920;12.050;2022-10-22T03:31:03;98649.34;;;19.87;69.84
13124;BME280;6627;50.920;12.050;2022-10-22T03:33:31;98641.84;;;19.45;70.50
13124;BME280;6627;50.920;12.050;2022-10-22T03:36:01;98655.28;;;19.89;70.18
13124;BME280;6627;50.920;12.050;2022-10-22T03:38:30;98663.13;;;20.10;69.45
13124;BME280;6627;50.920;12.050;2022-10-22T03:40:58;98628.91;;;19.65;69.48
13124;BME280;6627;50.920;12.050;2022-10-22T03:43:26;98633.59;;;19.84;69.77
13124;BME280;6627;50.920;12.050;2022-10-22T03:45:54;98630.94;;;19.68;69.86
13124;BME280;6627;50.920;12.050;2022-10-22T03:48:22;98649.38;;;20.33;68.54
13124;BME280;6627;50.920;12.050;2022-10-22T03:50:50;98640.00;;;20.37;67.41
13124;BME280;6627;50.920;12.050;2022-10-22T03:53:20;98624.25;;;19.88;67.89
13124;BME280;6627;50.920;12.050;2022-10-22T03:55:48;98637.06;;;20.04;67.65
13124;BME280;6627;50.920;12.050;2022-10-22T03:58:16;98625.28;;;19.61;68.96
13124;BME280;6627;50.920;12.050;2022-10-22T04:00:44;98635.34;;;19.96;68.10
13124;BME280;6627;50.920;12.050;2022-10-22T04:03:12;98642.78;;;20.14;67.46
13124;BME280;6627;50.920;12.050;2022-10-22T04:05:40;98622.16;;;20.05;66.71
13124;BME280;6627;50.920;12.050;2022-10-22T04:08:08;98621.91;;;19.90;67.44
13124;BME280;6627;50.920;12.050;2022-10-22T04:10:38;98626.59;;;19.67;68.24
13124;BME280;6627;50.920;12.050;2022-10-22T04:13:06;98603.75;;;19.24;68.78
13124;BME280;6627;50.920;12.050;2022-10-22T04:15:34;98624.56;;;19.25;69.47
13124;BME280;6627;50.920;12.050;2022-10-22T04:18:02;98659.06;;;20.04;68.19
13124;BME280;6627;50.920;12.050;2022-10-22T04:20:29;98606.44;;;19.21;68.96
13124;BME280;6627;50.920;12.050;2022-10-22T04:22:57;98607.56;;;18.65;70.55
13124;BME280;6627;50.920;12.050;2022-10-22T04:25:25;98651.88;;;19.18;71.38
13124;BME280;6627;50.920;12.050;2022-10-22T04:27:54;98623.69;;;19.02;71.61
13124;BME280;6627;50.920;12.050;2022-10-22T04:30:22;98614.28;;;18.83;72.31
13124;BME280;6627;50.920;12.050;2022-10-22T04:32:49;98616.56;;;18.81;73.48
13124;BME280;6627;50.920;12.050;2022-10-22T04:35:17;98645.06;;;18.93;74.42
13124;BME280;6627;50.920;12.050;2022-10-22T04:37:45;98629.94;;;19.18;73.45
13124;BME280;6627;50.920;12.050;2022-10-22T04:40:12;98655.38;;;19.73;71.26
13124;BME280;6627;50.920;12.050;2022-10-22T04:42:40;98645.84;;;19.67;70.60
13124;BME280;6627;50.920;12.050;2022-10-22T04:45:10;98650.63;;;19.70;70.62
13124;BME280;6627;50.920;12.050;2022-10-22T04:47:37;98677.63;;;20.53;68.51
13124;BME280;6627;50.920;12.050;2022-10-22T04:50:06;98660.16;;;20.22;68.54
13124;BME280;6627;50.920;12.050;2022-10-22T04:52:34;98656.16;;;20.16;67.62
13124;BME280;6627;50.920;12.050;2022-10-22T04:55:01;98651.38;;;20.13;67.69
13124;BME280;6627;50.920;12.050;2022-10-22T04:57:29;98646.28;;;19.92;68.57
13124;BME280;6627;50.920;12.050;2022-10-22T04:59:57;98636.50;;;19.72;68.84
13124;BME280;6627;50.920;12.050;2022-10-22T05:02:26;98654.09;;;19.67;69.81
13124;BME280;6627;50.920;12.050;2022-10-22T05:04:54;98639.03;;;19.61;69.77
13124;BME280;6627;50.920;12.050;2022-10-22T05:07:22;98667.38;;;20.30;68.48
13124;BME280;6627;50.920;12.050;2022-10-22T05:09:49;98664.16;;;20.48;67.05
13124;BME280;6627;50.920;12.050;2022-10-22T05:12:17;98677.22;;;20.31;67.65
13124;BME280;6627;50.920;12.050;2022-10-22T05:14:45;98691.19;;;20.00;69.33
13124;BME280;6627;50.920;12.050;2022-10-22T05:17:13;98690.50;;;20.49;67.03
13124;BME280;6627;50.920;12.050;2022-10-22T05:19:42;98703.41;;;20.68;65.99
13124;BME280;6627;50.920;12.050;2022-10-22T05:22:09;98694.47;;;20.28;67.06
13124;BME280;6627;50.920;12.050;2022-10-22T05:24:37;98708.09;;;20.21;67.78
13124;BME280;6627;50.920;12.050;2022-10-22T05:27:05;98714.47;;;20.48;67.01
13124;BME280;6627;50.920;12.050;2022-10-22T05:29:33;98718.75;;;20.46;66.88
13124;BME280;6627;50.920;12.050;2022-10-22T05:32:00;98667.94;;;19.55;68.52
13124;BME280;6627;50.920;12.050;2022-10-22T05:34:28;98688.22;;;19.66;69.97
13124;BME280;6627;50.920;12.050;2022-10-22T05:36:57;98691.94;;;19.97;69.08
13124;BME280;6627;50.920;12.050;2022-10-22T05:39:25;98680.59;;;20.21;67.50
13124;BME280;6627;50.920;12.050;2022-10-22T05:41:52;98711.00;;;20.51;67.94
13124;BME280;6627;50.920;12.050;2022-10-22T05:44:20;98722.72;;;20.71;67.07
13124;BME280;6627;50.920;12.050;2022-10-22T05:46:48;98704.28;;;20.49;66.72
13124;BME280;6627;50.920;12.050;2022-10-22T05:49:15;98705.56;;;20.55;66.14
13124;BME280;6627;50.920;12.050;2022-10-22T05:51:43;98701.88;;;19.82;67.73
13124;BME280;6627;50.920;12.050;2022-10-22T05:54:17;98699.03;;;19.59;69.92
13124;BME280;6627;50.920;12.050;2022-10-22T05:56:45;98729.94;;;20.14;69.42
13124;BME280;6627;50.920;12.050;2022-10-22T05:59:13;98643.06;;;18.74;71.63
13124;BME280;6627;50.920;12.050;2022-10-22T06:01:40;98717.69;;;19.50;72.36
13124;BME280;6627;50.920;12.050;2022-10-22T06:04:11;98750.03;;;20.37;70.60
13124;BME280;6627;50.920;12.050;2022-10-22T06:06:41;98740.94;;;20.14;70.65
13124;BME280;6627;50.920;12.050;2022-10-22T06:09:15;98758.38;;;20.41;70.07
13124;BME280;6627;50.920;12.050;2022-10-22T06:11:44;98771.59;;;20.55;69.67
13124;BME280;6627;50.920;12.050;2022-10-22T06:14:11;98780.00;;;20.42;70.42
13124;BME280;6627;50.920;12.050;2022-10-22T06:16:39;98762.38;;;20.24;70.25
13124;BME280;6627;50.920;12.050;2022-10-22T06:19:08;98770.47;;;20.36;70.78
13124;BME280;6627;50.920;12.050;2022-10-22T06:21:36;98755.88;;;20.13;71.12
13124;BME280;6627;50.920;12.050;2022-10-22T06:24:04;98751.34;;;19.47;73.23
13124;BME280;6627;50.920;12.050;2022-10-22T06:26:33;98768.78;;;19.70;73.23
13124;BME280;6627;50.920;12.050;2022-10-22T06:29:01;98798.09;;;20.44;72.07
13124;BME280;6627;50.920;12.050;2022-10-22T06:31:29;98769.19;;;20.11;72.05
13124;BME280;6627;50.920;12.050;2022-10-22T06:34:02;98769.94;;;19.88;72.17
13124;BME280;6627;50.920;12.050;2022-10-22T06:36:30;98756.75;;;19.98;71.73
13124;BME280;6627;50.920;12.050;2022-10-22T06:38:57;98785.41;;;19.97;72.00
13124;BME280;6627;50.920;12.050;2022-10-22T06:41:25;98793.94;;;20.11;72.47
13124;BME280;6627;50.920;12.050;2022-10-22T06:43:54;98789.63;;;20.10;71.90
13124;BME280;6627;50.920;12.050;2022-10-22T06:46:23;98755.47;;;19.56;72.06
13124;BME280;6627;50.920;12.050;2022-10-22T06:48:54;98798.41;;;20.38;71.00
13124;BME280;6627;50.920;12.050;2022-10-22T06:51:22;98804.19;;;20.33;70.34
13124;BME280;6627;50.920;12.050;2022-10-22T06:53:51;98795.59;;;19.41;73.06
13124;BME280;6627;50.920;12.050;2022-10-22T06:56:21;98797.63;;;19.45;73.72
13124;BME280;6627;50.920;12.050;2022-10-22T06:58:50;98821.00;;;19.70;74.55
13124;BME280;6627;50.920;12.050;2022-10-22T07:01:21;98846.41;;;20.60;71.94
13124;BME280;6627;50.920;12.050;2022-10-22T07:03:50;98795.53;;;19.22;74.35
13124;BME280;6627;50.920;12.050;2022-10-22T07:06:18;98802.28;;;19.09;75.69
13124;BME280;6627;50.920;12.050;2022-10-22T07:08:45;98798.16;;;19.34;75.58
13124;BME280;6627;50.920;12.050;2022-10-22T07:11:14;98824.63;;;19.94;73.10
13124;BME280;6627;50.920;12.050;2022-10-22T07:13:44;98833.06;;;19.85;73.55
13124;BME280;6627;50.920;12.050;2022-10-22T07:16:15;98793.44;;;19.51;72.71
13124;BME280;6627;50.920;12.050;2022-10-22T07:18:45;98855.47;;;19.68;74.73
13124;BME280;6627;50.920;12.050;2022-10-22T07:21:16;98867.59;;;20.21;72.74
13124;BME280;6627;50.920;12.050;2022-10-22T07:23:44;98870.78;;;20.62;71.13
13124;BME280;6627;50.920;12.050;2022-10-22T07:26:13;98861.91;;;20.10;71.65
13124;BME280;6627;50.920;12.050;2022-10-22T07:28:41;98842.66;;;19.24;74.05
13124;BME280;6627;50.920;12.050;2022-10-22T07:31:11;98899.06;;;20.59;71.51
13124;BME280;6627;50.920;12.050;2022-10-22T07:33:39;98883.84;;;20.46;70.79
13124;BME280;6627;50.920;12.050;2022-10-22T07:36:11;98860.19;;;20.45;69.31
13124;BME280;6627;50.920;12.050;2022-10-22T07:38:43;98883.97;;;20.33;70.50
13124;BME280;6627;50.920;12.050;2022-10-22T07:41:11;98888.84;;;19.85;72.41
13124;BME280;6627;50.920;12.050;2022-10-22T07:43:39;98840.88;;;19.16;73.79
13124;BME280;6627;50.920;12.050;2022-10-22T07:46:06;98888.44;;;20.03;73.24
13124;BME280;6627;50.920;12.050;2022-10-22T07:48:34;98910.41;;;20.77;71.34
13124;BME280;6627;50.920;12.050;2022-10-22T07:51:02;98891.53;;;20.56;71.48
13124;BME280;6627;50.920;12.050;2022-10-22T07:53:32;98878.03;;;20.70;69.59
13124;BME280;6627;50.920;12.050;2022-10-22T07:56:00;98898.91;;;20.52;70.74
13124;BME280;6627;50.920;12.050;2022-10-22T07:58:28;98900.41;;;20.10;72.63
13124;BME280;6627;50.920;12.050;2022-10-22T08:00:57;98901.47;;;20.25;72.36
13124;BME280;6627;50.920;12.050;2022-10-22T08:03:26;98908.44;;;20.38;72.70
13124;BME280;6627;50.920;12.050;2022-10-22T08:05:54;98857.50;;;19.55;73.47
13124;BME280;6627;50.920;12.050;2022-10-22T08:08:22;98912.63;;;20.71;71.54
13124;BME280;6627;50.920;12.050;2022-10-22T08:10:52;98919.31;;;20.89;70.88
13124;BME280;6627;50.920;12.050;2022-10-22T08:13:20;98906.44;;;20.55;70.92
13124;BME280;6627;50.920;12.050;2022-10-22T08:15:48;98920.66;;;20.99;69.48
13124;BME280;6627;50.920;12.050;2022-10-22T08:18:16;98909.88;;;20.90;68.94
13124;BME280;6627;50.920;12.050;2022-10-22T08:20:45;98910.78;;;20.56;69.82
13124;BME280;6627;50.920;12.050;2022-10-22T08:23:12;98891.56;;;20.40;70.82
13124;BME280;6627;50.920;12.050;2022-10-22T08:25:40;98921.34;;;20.73;70.17
13124;BME280;6627;50.920;12.050;2022-10-22T08:28:09;98889.56;;;19.82;71.95
13124;BME280;6627;50.920;12.050;2022-10-22T08:30:37;98899.53;;;20.06;74.42
13124;BME280;6627;50.920;12.050;2022-10-22T08:33:05;98879.75;;;20.39;72.92
13124;BME280;6627;50.920;12.050;2022-10-22T08:35:33;98853.19;;;20.08;73.45
13124;BME280;6627;50.920;12.050;2022-10-22T08:38:01;98891.06;;;20.54;73.51
13124;BME280;6627;50.920;12.050;2022-10-22T08:40:31;98876.31;;;20.23;73.71
13124;BME280;6627;50.920;12.050;2022-10-22T08:43:31;98909.63;;;20.76;73.25
13124;BME280;6627;50.920;12.050;2022-10-22T08:46:20;98905.69;;;20.77;72.12
13124;BME280;6627;50.920;12.050;2022-10-22T08:48:53;98905.47;;;21.09;70.36
13124;BME280;6627;50.920;12.050;2022-10-22T08:51:24;98904.69;;;20.66;71.85
13124;BME280;6627;50.920;12.050;2022-10-22T08:54:09;98835.84;;;19.02;74.13
13124;BME280;6627;50.920;12.050;2022-10-22T08:56:43;98922.47;;;19.47;76.61
13124;BME280;6627;50.920;12.050;2022-10-22T08:59:18;98894.03;;;19.08;77.06
13124;BME280;6627;50.920;12.050;2022-10-22T09:01:51;98930.16;;;20.44;73.12
13124;BME280;6627;50.920;12.050;2022-10-22T09:04:25;98931.88;;;20.68;71.41
13124;BME280;6627;50.920;12.050;2022-10-22T09:06:58;98933.88;;;20.90;70.99
13124;BME280;6627;50.920;12.050;2022-10-22T09:09:30;98900.91;;;20.35;70.54
13124;BME280;6627;50.920;12.050;2022-10-22T09:12:01;98913.97;;;20.58;69.51
13124;BME280;6627;50.920;12.050;2022-10-22T09:14:32;98940.91;;;20.68;69.97
13124;BME280;6627;50.920;12.050;2022-10-22T09:17:12;98960.00;;;21.00;69.75
13124;BME280;6627;50.920;12.050;2022-10-22T09:19:52;98955.69;;;21.02;69.29
13124;BME280;6627;50.920;12.050;2022-10-22T09:22:33;98936.84;;;20.62;69.66
13124;BME280;6627;50.920;12.050;2022-10-22T09:25:18;98976.22;;;21.47;68.11
13124;BME280;6627;50.920;12.050;2022-10-22T09:27:47;98970.50;;;21.59;67.02
13124;BME280;6627;50.920;12.050;2022-10-22T09:30:18;98964.53;;;21.54;66.89
13124;BME280;6627;50.920;12.050;2022-10-22T09:32:47;98987.03;;;21.82;66.99
13124;BME280;6627;50.920;12.050;2022-10-22T09:35:22;98912.72;;;21.17;66.04
13124;BME280;6627;50.920;12.050;2022-10-22T09:37:52;98986.47;;;21.96;66.04
13124;BME280;6627;50.920;12.050;2022-10-22T09:40:20;98981.31;;;21.95;66.49
13124;BME280;6627;50.920;12.050;2022-10-22T09:42:48;99006.31;;;22.62;64.11
13124;BME280;6627;50.920;12.050;2022-10-22T09:45:20;98982.69;;;22.34;64.81
13124;BME280;6627;50.920;12.050;2022-10-22T09:47:50;98955.66;;;22.17;64.33
13124;BME280;6627;50.920;12.050;2022-10-22T09:50:38;99014.88;;;22.83;64.07
13124;BME280;6627;50.920;12.050;2022-10-22T09:53:13;98958.63;;;22.31;63.58
13124;BME280;6627;50.920;12.050;2022-10-22T09:55:50;98974.81;;;22.63;62.81
13124;BME280;6627;50.920;12.050;2022-10-22T09:58:18;98937.13;;;22.14;62.34
13124;BME280;6627;50.920;12.050;2022-10-22T10:00:53;98978.06;;;22.72;62.12
13124;BME280;6627;50.920;12.050;2022-10-22T10:03:23;98955.47;;;22.63;61.68
13124;BME280;6627;50.920;12.050;2022-10-22T10:05:53;98977.59;;;22.97;61.34
13124;BME280;6627;50.920;12.050;2022-10-22T10:08:22;98935.81;;;22.68;60.52
13124;BME280;6627;50.920;12.050;2022-10-22T10:10:53;98960.16;;;22.92;60.92
13124;BME280;6627;50.920;12.050;2022-10-22T10:13:34;98943.59;;;22.92;59.61
13124;BME280;6627;50.920;12.050;2022-10-22T10:16:23;98971.59;;;23.28;60.08
13124;BME280;6627;50.920;12.050;2022-10-22T10:19:08;98958.28;;;23.41;59.37
13124;BME280;6627;50.920;12.050;2022-10-22T10:21:48;98937.63;;;23.24;59.37
13124;BME280;6627;50.920;12.050;2022-10-22T10:24:25;98923.38;;;23.22;58.98
13124;BME280;6627;50.920;12.050;2022-10-22T10:26:59;98929.38;;;23.31;59.01
13124;BME280;6627;50.920;12.050;2022-10-22T10:29:43;98954.91;;;23.62;59.00
13124;BME280;6627;50.920;12.050;2022-10-22T10:32:27;98913.78;;;23.09;59.76
13124;BME280;6627;50.920;12.050;2022-10-22T10:35:06;98878.59;;;22.65;60.27
13124;BME280;6627;50.920;12.050;2022-10-22T10:37:42;98963.34;;;23.76;59.51
13124;BME280;6627;50.920;12.050;2022-10-22T10:40:21;98916.66;;;23.67;57.82
13124;BME280;6627;50.920;12.050;2022-10-22T10:42:54;98964.38;;;24.09;57.46
13124;BME280;6627;50.920;12.050;2022-10-22T10:45:30;98901.75;;;23.79;56.48
13124;BME280;6627;50.920;12.050;2022-10-22T10:48:23;98829.34;;;23.15;57.90
13124;BME280;6627;50.920;12.050;2022-10-22T10:51:05;98943.75;;;23.96;58.09
13124;BME280;6627;50.920;12.050;2022-10-22T10:53:46;98844.69;;;23.57;56.85
13124;BME280;6627;50.920;12.050;2022-10-22T10:56:34;98922.81;;;24.02;57.01
13124;BME280;6627;50.920;12.050;2022-10-22T10:59:12;98912.03;;;23.82;56.79
13124;BME280;6627;50.920;12.050;2022-10-22T11:01:53;98914.53;;;24.02;56.63
13124;BME280;6627;50.920;12.050;2022-10-22T11:04:45;98863.94;;;24.05;55.10
13124;BME280;6627;50.920;12.050;2022-10-22T11:07:25;98942.50;;;24.55;55.68
13124;BME280;6627;50.920;12.050;2022-10-22T11:09:58;98932.25;;;24.63;55.10
13124;BME280;6627;50.920;12.050;2022-10-22T11:12:32;98904.53;;;24.63;54.73
13124;BME280;6627;50.920;12.050;2022-10-22T11:15:05;98894.94;;;24.39;55.31
13124;BME280;6627;50.920;12.050;2022-10-22T11:17:41;98878.66;;;24.30;55.10
13124;BME280;6627;50.920;12.050;2022-10-22T11:20:21;98921.16;;;24.70;54.93
13124;BME280;6627;50.920;12.050;2022-10-22T11:22:56;98922.44;;;24.98;53.66
13124;BME280;6627;50.920;12.050;2022-10-22T11:25:31;98900.63;;;24.71;54.40
13124;BME280;6627;50.920;12.050;2022-10-22T11:28:04;98888.72;;;24.74;54.26
13124;BME280;6627;50.920;12.050;2022-10-22T11:30:36;98818.81;;;23.94;55.84
13124;BME280;6627;50.920;12.050;2022-10-22T11:33:10;98979.56;;;25.34;55.31
13124;BME280;6627;50.920;12.050;2022-10-22T11:35:42;98826.78;;;24.06;55.66
13124;BME280;6627;50.920;12.050;2022-10-22T11:38:15;98904.56;;;24.74;55.88
13124;BME280;6627;50.920;12.050;2022-10-22T11:40:47;98828.47;;;24.35;54.93
13124;BME280;6627;50.920;12.050;2022-10-22T11:43:28;98827.66;;;24.24;54.83
13124;BME280;6627;50.920;12.050;2022-10-22T11:46:23;98842.63;;;24.16;55.19
13124;BME280;6627;50.920;12.050;2022-10-22T11:49:04;98937.16;;;25.16;54.27
13124;BME280;6627;50.920;12.050;2022-10-22T11:51:35;98848.81;;;24.93;52.87
13124;BME280;6627;50.920;12.050;2022-10-22T11:54:28;98883.19;;;24.67;54.82
13124;BME280;6627;50.920;12.050;2022-10-22T11:57:11;98887.50;;;24.61;55.35
13124;BME280;6627;50.920;12.050;2022-10-22T11:59:48;98878.88;;;24.80;54.89
13124;BME280;6627;50.920;12.050;2022-10-22T12:02:28;98860.19;;;24.56;54.63
13124;BME280;6627;50.920;12.050;2022-10-22T12:05:31;98804.53;;;23.81;55.08
13124;BME280;6627;50.920;12.050;2022-10-22T12:11:11;98780.59;;;23.40;56.07
13124;BME280;6627;50.920;12.050;2022-10-22T12:14:02;98777.34;;;23.24;56.35
13124;BME280;6627;50.920;12.050;2022-10-22T12:16:43;98832.97;;;23.74;56.19
13124;BME280;6627;50.920;12.050;2022-10-22T12:19:14;98806.50;;;23.73;55.49
13124;BME280;6627;50.920;12.050;2022-10-22T12:21:46;98850.13;;;24.12;55.12
13124;BME280;6627;50.920;12.050;2022-10-22T12:24:19;98782.75;;;23.65;54.80
13124;BME280;6627;50.920;12.050;2022-10-22T12:26:47;98842.50;;;23.87;55.19
13124;BME280;6627;50.920;12.050;2022-10-22T12:29:20;98888.28;;;24.54;54.66
13124;BME280;6627;50.920;12.050;2022-10-22T12:31:49;98807.66;;;23.72;55.30
13124;BME280;6627;50.920;12.050;2022-10-22T12:34:19;98829.94;;;24.01;54.64
13124;BME280;6627;50.920;12.050;2022-10-22T12:36:49;98813.28;;;23.94;54.71
13124;BME280;6627;50.920;12.050;2022-10-22T12:39:20;98820.34;;;23.80;55.31
13124;BME280;6627;50.920;12.050;2022-10-22T12:41:48;98729.53;;;23.20;54.25
13124;BME280;6627;50.920;12.050;2022-10-22T12:44:17;98768.03;;;23.54;53.77
13124;BME280;6627;50.920;12.050;2022-10-22T12:46:48;98847.34;;;24.12;53.05
13124;BME280;6627;50.920;12.050;2022-10-22T12:49:22;98806.38;;;24.42;50.77
13124;BME280;6627;50.920;12.050;2022-10-22T12:51:51;98724.75;;;23.94;50.32
13124;BME280;6627;50.920;12.050;2022-10-22T12:54:26;98796.13;;;24.57;49.92
13124;BME280;6627;50.920;12.050;2022-10-22T12:56:55;98730.06;;;24.49;49.29
13124;BME280;6627;50.920;12.050;2022-10-22T12:59:25;98681.28;;;23.90;50.40
13124;BME280;6627;50.920;12.050;2022-10-22T13:01:54;98689.97;;;23.89;50.50
13124;BME280;6627;50.920;12.050;2022-10-22T13:04:33;98687.63;;;23.91;50.77
13124;BME280;6627;50.920;12.050;2022-10-22T13:07:15;98716.91;;;24.17;50.22
13124;BME280;6627;50.920;12.050;2022-10-22T13:09:45;98788.22;;;24.74;49.39
13124;BME280;6627;50.920;12.050;2022-10-22T13:12:14;98767.66;;;24.82;49.08
13124;BME280;6627;50.920;12.050;2022-10-22T13:14:44;98760.53;;;24.84;48.78
13124;BME280;6627;50.920;12.050;2022-10-22T13:17:36;98701.09;;;24.21;50.05
13124;BME280;6627;50.920;12.050;2022-10-22T13:20:14;98743.88;;;24.41;49.98
13124;BME280;6627;50.920;12.050;2022-10-22T13:22:53;98678.91;;;23.92;50.52
13124;BME280;6627;50.920;12.050;2022-10-22T13:25:23;98691.59;;;24.01;50.31
13124;BME280;6627;50.920;12.050;2022-10-22T13:27:54;98715.31;;;24.12;50.33
13124;BME280;6627;50.920;12.050;2022-10-22T13:30:25;98794.56;;;24.67;49.87